createdAt,value
2023-05-15T00:02:17.295Z,95236.75
2023-05-15T00:05:03.832Z,95243.53
2023-05-15T00:07:49.997Z,95242.75
2023-05-15T00:10:35.981Z,95246.16
2023-05-15T00:13:22.027Z,95235.63
2023-05-15T00:16:09.482Z,95245.47
2023-05-15T00:18:55.639Z,95234.09
2023-05-15T00:21:41.606Z,95252.16
2023-05-15T00:24:30.686Z,95241.59
2023-05-15T00:27:16.716Z,95252.72
2023-05-15T00:30:02.447Z,95249.63
2023-05-15T00:32:48.273Z,95246.56
2023-05-15T00:35:36.626Z,95266.75
2023-05-15T00:38:22.383Z,95268.25
2023-05-15T00:41:10.394Z,95255.47
2023-05-15T00:43:56.755Z,95267.00
2023-05-15T00:46:43.393Z,95241.59
2023-05-15T00:49:30.070Z,95238.88
2023-05-15T00:52:15.939Z,95219.81
2023-05-15T00:55:02.089Z,95237.41
2023-05-15T00:57:48.198Z,95238.53
2023-05-15T01:00:34.642Z,95230.72
2023-05-15T01:03:21.659Z,95242.06
2023-05-15T01:06:07.742Z,95226.66
2023-05-15T01:08:55.224Z,95212.78
2023-05-15T01:11:42.506Z,95198.03
2023-05-15T01:14:29.073Z,95203.75
2023-05-15T01:17:14.841Z,95207.00
2023-05-15T01:20:01.625Z,95203.16
2023-05-15T01:23:09.122Z,95187.50
2023-05-15T01:26:13.334Z,95208.06
2023-05-15T01:29:04.556Z,95177.66
2023-05-15T01:31:57.011Z,95192.41
2023-05-15T01:34:58.755Z,95185.50
2023-05-15T01:37:46.416Z,95197.72
2023-05-15T01:40:32.325Z,95189.03
2023-05-15T01:43:21.213Z,95192.28
2023-05-15T01:46:07.632Z,95194.13
2023-05-15T01:48:55.071Z,95175.41
2023-05-15T01:51:42.697Z,95170.84
2023-05-15T01:54:29.864Z,95179.72
2023-05-15T01:57:16.444Z,95148.63
2023-05-15T02:00:03.511Z,95139.78
2023-05-15T02:03:09.367Z,95143.97
2023-05-15T02:05:56.731Z,95143.19
2023-05-15T02:08:43.305Z,95136.84
2023-05-15T02:11:29.637Z,95134.94
2023-05-15T02:14:17.438Z,95135.28
2023-05-15T02:17:03.458Z,95111.59
2023-05-15T02:19:49.644Z,95139.72
2023-05-15T02:22:36.269Z,95142.88
2023-05-15T02:25:33.172Z,95161.38
2023-05-15T02:28:32.691Z,95160.56
2023-05-15T02:31:27.516Z,95157.53
2023-05-15T02:34:30.415Z,95142.78
2023-05-15T02:37:18.428Z,95144.59
2023-05-15T02:40:07.157Z,95166.03
2023-05-15T02:42:53.815Z,95205.44
2023-05-15T02:45:41.163Z,95201.94
2023-05-15T02:48:27.555Z,95209.69
2023-05-15T02:51:14.220Z,95213.97
2023-05-15T02:54:01.745Z,95232.09
2023-05-15T02:56:47.936Z,95226.31
2023-05-15T02:59:35.023Z,95218.50
2023-05-15T03:02:20.861Z,95226.41
2023-05-15T03:05:07.328Z,95233.00
2023-05-15T03:07:53.139Z,95223.34
2023-05-15T03:10:39.291Z,95220.97
2023-05-15T03:13:25.055Z,95228.00
2023-05-15T03:16:10.808Z,95224.16
2023-05-15T03:18:56.918Z,95215.91
2023-05-15T03:21:42.826Z,95225.75
2023-05-15T03:24:28.472Z,95254.44
2023-05-15T03:27:14.355Z,95230.28
2023-05-15T03:30:00.566Z,95252.50
2023-05-15T03:32:46.785Z,95234.50
2023-05-15T03:35:32.992Z,95234.25
2023-05-15T03:38:20.084Z,95216.25
2023-05-15T03:41:06.162Z,95215.91
2023-05-15T03:43:51.950Z,95207.63
2023-05-15T03:46:37.666Z,95205.78
2023-05-15T03:49:23.506Z,95208.94
2023-05-15T03:52:09.929Z,95188.31
2023-05-15T03:54:55.836Z,95170.41
2023-05-15T03:57:41.984Z,95151.78
2023-05-15T04:00:28.086Z,95143.84
2023-05-15T04:03:14.138Z,95128.66
2023-05-15T04:06:00.355Z,95110.06
2023-05-15T04:08:46.291Z,95097.13
2023-05-15T04:11:34.900Z,95101.88
2023-05-15T04:14:21.003Z,95085.09
2023-05-15T04:17:06.771Z,95093.72
2023-05-15T04:19:52.545Z,95109.78
2023-05-15T04:22:38.647Z,95106.28
2023-05-15T04:25:24.803Z,95100.16
2023-05-15T04:28:11.114Z,95098.66
2023-05-15T04:30:58.676Z,95096.63
2023-05-15T04:33:44.485Z,95114.00
2023-05-15T04:36:30.315Z,95123.06
2023-05-15T04:39:16.153Z,95125.91
2023-05-15T04:42:02.475Z,95116.13
2023-05-15T04:44:48.496Z,95126.69
2023-05-15T04:47:34.332Z,95127.38
2023-05-15T04:50:20.443Z,95116.81
2023-05-15T04:53:06.588Z,95109.44
2023-05-15T04:55:52.287Z,95107.97
2023-05-15T04:58:38.467Z,95106.38
2023-05-15T05:01:24.329Z,95120.44
2023-05-15T05:04:10.361Z,95110.13
2023-05-15T05:06:56.137Z,95128.16
2023-05-15T05:09:42.264Z,95129.53
2023-05-15T05:12:28.330Z,95131.22
2023-05-15T05:15:14.534Z,95131.34
2023-05-15T05:18:00.659Z,95130.88
2023-05-15T05:20:47.025Z,95149.50
2023-05-15T05:23:33.133Z,95124.53
2023-05-15T05:26:18.869Z,95126.59
2023-05-15T05:29:04.786Z,95128.84
2023-05-15T05:31:51.477Z,95126.59
2023-05-15T05:34:37.802Z,95148.34
2023-05-15T05:37:24.903Z,95125.78
2023-05-15T05:40:11.061Z,95147.56
2023-05-15T05:43:03.741Z,95154.72
2023-05-15T05:45:49.718Z,95152.22
2023-05-15T05:48:36.648Z,95180.53
2023-05-15T05:51:22.382Z,95167.16
2023-05-15T05:54:08.128Z,95186.00
2023-05-15T05:56:54.184Z,95190.75
2023-05-15T05:59:40.050Z,95179.41
2023-05-15T06:02:26.155Z,95187.75
2023-05-15T06:05:12.230Z,95172.81
2023-05-15T06:07:58.229Z,95173.69
2023-05-15T06:10:44.953Z,95180.03
2023-05-15T06:13:31.066Z,95167.38
2023-05-15T06:16:16.807Z,95156.69
2023-05-15T06:19:02.868Z,95157.94
2023-05-15T06:21:48.725Z,95154.44
2023-05-15T06:24:34.735Z,95164.19
2023-05-15T06:27:21.101Z,95171.22
2023-05-15T06:30:08.255Z,95161.13
2023-05-15T06:32:55.820Z,95155.81
2023-05-15T06:35:42.608Z,95163.06
2023-05-15T06:38:28.638Z,95178.94
2023-05-15T06:41:14.529Z,95164.84
2023-05-15T06:44:00.579Z,95172.13
2023-05-15T06:46:46.468Z,95172.56
2023-05-15T06:49:32.417Z,95175.66
2023-05-15T06:52:18.157Z,95177.13
2023-05-15T06:55:04.125Z,95164.09
2023-05-15T06:57:50.785Z,95196.19
2023-05-15T07:00:36.628Z,95170.78
2023-05-15T07:03:22.554Z,95163.06
2023-05-15T07:06:08.416Z,95154.44
2023-05-15T07:08:54.574Z,95175.09
2023-05-15T07:11:42.241Z,95172.03
2023-05-15T07:14:28.230Z,95178.94
2023-05-15T07:17:14.020Z,95188.25
2023-05-15T07:20:00.223Z,95202.09
2023-05-15T07:22:55.620Z,95197.66
2023-05-15T07:25:45.938Z,95202.50
2023-05-15T07:28:32.292Z,95201.66
2023-05-15T07:31:18.189Z,95219.78
2023-05-15T07:34:04.049Z,95208.56
2023-05-15T07:36:50.179Z,95216.72
2023-05-15T07:39:36.004Z,95218.84
2023-05-15T07:42:21.909Z,95211.81
2023-05-15T07:45:08.432Z,95188.22
2023-05-15T07:47:54.779Z,95195.78
2023-05-15T07:50:40.992Z,95202.75
2023-05-15T07:53:27.299Z,95197.22
2023-05-15T07:56:13.253Z,95210.78
2023-05-15T07:58:59.252Z,95188.50
2023-05-15T08:01:45.261Z,95179.09
2023-05-15T08:04:31.229Z,95165.56
2023-05-15T08:07:17.328Z,95165.38
2023-05-15T08:10:06.272Z,95167.66
2023-05-15T08:12:52.456Z,95150.75
2023-05-15T08:15:38.682Z,95179.75
2023-05-15T08:18:24.576Z,95171.13
2023-05-15T08:21:11.195Z,95183.53
2023-05-15T08:23:57.428Z,95185.63
2023-05-15T08:26:43.517Z,95173.56
2023-05-15T08:29:29.582Z,95177.78
2023-05-15T08:32:16.456Z,95177.84
2023-05-15T08:35:02.281Z,95154.81
2023-05-15T08:37:48.235Z,95176.00
2023-05-15T08:40:39.003Z,95172.22
2023-05-15T08:43:27.426Z,95153.03
2023-05-15T08:46:13.584Z,95148.00
2023-05-15T08:49:03.628Z,95148.84
2023-05-15T08:51:49.677Z,95158.72
2023-05-15T08:54:36.392Z,95157.22
2023-05-15T08:57:22.847Z,95155.53
2023-05-15T09:00:09.522Z,95151.31
2023-05-15T09:02:55.378Z,95145.78
2023-05-15T09:05:41.659Z,95140.41
2023-05-15T09:08:29.135Z,95139.69
2023-05-15T09:11:16.003Z,95140.63
2023-05-15T09:14:01.857Z,95151.63
2023-05-15T09:16:51.111Z,95152.47
2023-05-15T09:19:39.199Z,95151.41
2023-05-15T09:22:26.107Z,95144.88
2023-05-15T09:25:13.401Z,95143.53
2023-05-15T09:28:00.048Z,95124.50
2023-05-15T09:30:46.306Z,95119.47
2023-05-15T09:33:39.129Z,95126.78
2023-05-15T09:36:26.411Z,95116.31
2023-05-15T09:39:12.471Z,95129.38
2023-05-15T09:42:08.682Z,95120.84
2023-05-15T09:44:54.173Z,95119.44
2023-05-15T09:47:40.237Z,95131.38
2023-05-15T09:50:37.606Z,95121.38
2023-05-15T09:53:24.360Z,95118.69
2023-05-15T09:56:14.219Z,95119.19
2023-05-15T09:59:01.022Z,95087.22
2023-05-15T10:01:47.329Z,95108.63
2023-05-15T10:04:36.913Z,95101.69
2023-05-15T10:07:38.570Z,95093.91
2023-05-15T10:10:26.326Z,95097.28
2023-05-15T10:13:12.515Z,95096.53
2023-05-15T10:15:59.256Z,95088.44
2023-05-15T10:18:45.807Z,95078.75
2023-05-15T10:21:34.688Z,95058.41
2023-05-15T10:24:21.559Z,95070.31
2023-05-15T10:27:09.598Z,95074.41
2023-05-15T10:29:59.492Z,95059.56
2023-05-15T10:32:52.429Z,95065.94
2023-05-15T10:35:42.811Z,95053.56
2023-05-15T10:38:31.892Z,95041.06
2023-05-15T10:41:18.336Z,95033.28
2023-05-15T10:44:04.511Z,95033.03
2023-05-15T10:46:50.732Z,95040.97
2023-05-15T10:49:36.848Z,95014.38
2023-05-15T10:52:22.995Z,95015.69
2023-05-15T10:55:13.474Z,94991.81
2023-05-15T10:57:59.752Z,94993.06
2023-05-15T11:00:47.977Z,94972.75
2023-05-15T11:03:47.894Z,95001.13
2023-05-15T11:06:45.485Z,94983.91
2023-05-15T11:09:36.203Z,94981.28
2023-05-15T11:12:23.568Z,94965.97
2023-05-15T11:15:09.387Z,94977.06
2023-05-15T11:18:28.661Z,94965.34
2023-05-15T11:21:16.613Z,94963.03
2023-05-15T11:24:15.079Z,94948.94
2023-05-15T11:27:38.949Z,94944.66
2023-05-15T11:30:41.518Z,94947.00
2023-05-15T11:33:33.522Z,94945.84
2023-05-15T11:36:24.405Z,94943.50
2023-05-15T11:39:11.990Z,94928.59
2023-05-15T11:42:11.450Z,94926.25
2023-05-15T11:44:57.553Z,94920.78
2023-05-15T11:47:45.441Z,94908.22
2023-05-15T11:50:33.676Z,94927.13
2023-05-15T11:53:20.998Z,94911.47
2023-05-15T11:56:07.432Z,94908.31
2023-05-15T11:58:58.731Z,94902.88
2023-05-15T12:01:48.500Z,94907.97
2023-05-15T12:04:34.962Z,94900.53
2023-05-15T12:07:20.818Z,94916.25
2023-05-15T12:10:07.702Z,94902.53
2023-05-15T12:12:53.553Z,94900.16
2023-05-15T12:15:43.166Z,94900.59
2023-05-15T12:18:31.944Z,94899.41
2023-05-15T12:21:18.057Z,94874.66
2023-05-15T12:24:08.138Z,94871.50
2023-05-15T12:26:56.627Z,94872.28
2023-05-15T12:29:43.943Z,94872.25
2023-05-15T12:32:32.951Z,94862.84
2023-05-15T12:35:19.293Z,94870.28
2023-05-15T12:38:05.905Z,94876.16
2023-05-15T12:57:14.486Z,94857.69
2023-05-15T13:00:00.658Z,94878.53
2023-05-15T13:02:48.843Z,94898.59
2023-05-15T13:05:36.654Z,94859.69
2023-05-15T13:08:22.880Z,94893.50
2023-05-15T13:11:14.169Z,94893.50
2023-05-15T13:14:00.720Z,94900.97
2023-05-15T13:16:47.192Z,94878.56
2023-05-15T13:19:33.288Z,94858.16
2023-05-15T13:22:18.961Z,94845.56
2023-05-15T13:25:05.407Z,94836.16
2023-05-15T13:27:51.672Z,94836.13
2023-05-15T13:30:41.548Z,94842.41
2023-05-15T13:33:27.614Z,94841.66
2023-05-15T13:36:19.602Z,94838.50
2023-05-15T13:39:06.591Z,94845.19
2023-05-15T13:41:52.525Z,94837.69
2023-05-15T13:46:09.071Z,94849.91
2023-05-15T13:48:55.259Z,94847.94
2023-05-15T13:51:41.242Z,94842.81
2023-05-15T13:54:26.953Z,94841.63
2023-05-15T13:57:13.145Z,94847.13
2023-05-15T14:00:31.228Z,94855.78
2023-05-15T14:13:01.247Z,94878.94
2023-05-15T14:15:48.076Z,94873.03
2023-05-15T14:18:36.864Z,94893.44
2023-05-15T14:21:23.250Z,94893.41
2023-05-15T14:24:09.118Z,94896.53
2023-05-15T14:26:55.233Z,94916.19
2023-05-15T14:29:41.559Z,94912.25
2023-05-15T14:32:27.700Z,94917.78
2023-05-15T14:35:13.554Z,94932.72
2023-05-15T14:37:59.845Z,94926.47
2023-05-15T14:40:46.010Z,94931.59
2023-05-15T14:43:31.863Z,94942.97
2023-05-15T14:46:18.880Z,94931.22
2023-05-15T14:49:05.475Z,94954.81
2023-05-15T14:51:51.316Z,94933.53
2023-05-15T14:56:52.536Z,94936.53
2023-05-15T14:59:38.349Z,94925.47
2023-05-15T15:02:24.220Z,94935.69
2023-05-15T15:05:10.292Z,94930.19
2023-05-15T15:08:05.886Z,94936.94
2023-05-15T15:10:52.290Z,94930.28
2023-05-15T15:13:38.541Z,94919.31
2023-05-15T15:16:27.225Z,94890.25
2023-05-15T15:19:13.753Z,94894.63
2023-05-15T15:21:59.598Z,94871.41
2023-05-15T15:24:45.694Z,94859.63
2023-05-15T15:27:37.100Z,94859.25
2023-05-15T15:30:25.268Z,94863.22
2023-05-15T15:33:11.491Z,94886.84
2023-05-15T15:35:57.571Z,94896.66
2023-05-15T15:38:43.828Z,94881.31
2023-05-15T15:41:33.124Z,94878.56
2023-05-15T15:44:19.188Z,94891.94
2023-05-15T15:47:05.148Z,94879.34
2023-05-15T15:49:51.523Z,94898.22
2023-05-15T15:52:37.502Z,94896.22
2023-05-15T15:55:24.661Z,94893.47
2023-05-15T15:58:10.579Z,94883.63
2023-05-15T16:00:58.039Z,94884.81
2023-05-15T16:03:44.001Z,94880.09
2023-05-15T16:06:30.155Z,94879.31
2023-05-15T16:09:19.146Z,94893.38
2023-05-15T16:12:05.311Z,94892.97
2023-05-15T16:14:51.398Z,94899.56
2023-05-15T16:17:38.638Z,94892.50
2023-05-15T16:20:25.030Z,94904.25
2023-05-15T16:23:15.021Z,94897.13
2023-05-15T16:26:02.436Z,94907.31
2023-05-15T16:28:48.440Z,94918.25
2023-05-15T16:31:34.530Z,94911.94
2023-05-15T16:34:20.882Z,94905.66
2023-05-15T16:37:06.875Z,94915.84
2023-05-15T16:39:52.969Z,94918.94
2023-05-15T16:42:39.709Z,94909.50
2023-05-15T16:45:26.190Z,94899.63
2023-05-15T16:48:12.459Z,94899.25
2023-05-15T16:50:58.436Z,94888.19
2023-05-15T16:53:44.765Z,94888.97
2023-05-15T16:56:42.436Z,94900.69
2023-05-15T16:59:34.662Z,94893.56
2023-05-15T17:02:24.150Z,94896.69
2023-05-15T17:05:10.981Z,94895.47
2023-05-15T17:07:56.977Z,94896.22
2023-05-15T17:10:42.996Z,94909.09
2023-05-15T17:13:29.016Z,94892.66
2023-05-15T17:16:14.952Z,94892.25
2023-05-15T17:19:01.297Z,94893.38
2023-05-15T17:21:47.065Z,94882.38
2023-05-15T17:24:54.445Z,94889.41
2023-05-15T17:27:41.656Z,94900.28
2023-05-15T17:30:27.744Z,94902.66
2023-05-15T17:33:13.706Z,94899.50
2023-05-15T17:35:59.572Z,94895.19
2023-05-15T17:38:45.199Z,94895.50
2023-05-15T17:41:31.202Z,94903.72
2023-05-15T17:44:17.355Z,94900.91
2023-05-15T17:47:03.274Z,94907.88
2023-05-15T17:49:49.636Z,94915.72
2023-05-15T17:52:37.249Z,94923.47
2023-05-15T17:55:24.311Z,94929.72
2023-05-15T17:58:10.450Z,94931.25
2023-05-15T18:00:57.436Z,94925.00
2023-05-15T18:03:43.380Z,94926.56
2023-05-15T18:06:29.289Z,94925.00
2023-05-15T18:09:15.269Z,94914.03
2023-05-15T18:12:01.384Z,94925.75
2023-05-15T18:14:47.504Z,94934.00
2023-05-15T18:17:33.303Z,94928.91
2023-05-15T18:20:19.153Z,94933.59
2023-05-15T18:23:04.921Z,94932.81
2023-05-15T18:25:51.078Z,94928.09
2023-05-15T18:28:37.303Z,94931.97
2023-05-15T18:31:23.538Z,94938.25
2023-05-15T18:34:09.744Z,94939.78
2023-05-15T18:36:56.038Z,94946.00
2023-05-15T18:39:44.416Z,94939.34
2023-05-15T18:42:31.508Z,94947.16
2023-05-15T18:45:17.654Z,94951.47
2023-05-15T18:48:04.036Z,94953.81
2023-05-15T18:51:16.265Z,94965.53
2023-05-15T18:54:02.437Z,94962.34
2023-05-15T18:56:48.477Z,94963.94
2023-05-15T18:59:34.915Z,94956.88
2023-05-15T19:02:30.646Z,94963.94
2023-05-15T19:05:16.957Z,94963.06
2023-05-15T19:08:04.041Z,94964.69
2023-05-15T19:10:50.844Z,94961.53
2023-05-15T19:13:36.850Z,94961.88
2023-05-15T19:16:26.913Z,94965.38
2023-05-15T19:19:13.413Z,94959.88
2023-05-15T19:21:59.156Z,94971.97
2023-05-15T19:24:45.075Z,94965.25
2023-05-15T19:27:32.086Z,94974.25
2023-05-15T19:30:18.372Z,94983.22
2023-05-15T19:33:04.391Z,94975.72
2023-05-15T19:35:50.950Z,94979.59
2023-05-15T19:38:37.854Z,94990.94
2023-05-15T19:41:24.240Z,94992.88
2023-05-15T19:44:10.345Z,94981.50
2023-05-15T19:46:56.538Z,94976.81
2023-05-15T19:49:43.559Z,94985.75
2023-05-15T19:52:29.913Z,94973.66
2023-05-15T19:55:15.951Z,94963.41
2023-05-15T19:58:01.934Z,94968.47
2023-05-15T20:00:48.489Z,94963.28
2023-05-15T20:03:35.126Z,94964.06
2023-05-15T20:06:21.326Z,94954.69
2023-05-15T20:09:07.409Z,94953.75
2023-05-15T20:11:53.433Z,94956.84
2023-05-15T20:14:39.381Z,94945.84
2023-05-15T20:17:25.371Z,94939.63
2023-05-15T20:20:12.321Z,94923.88
2023-05-15T20:22:58.512Z,94921.50
2023-05-15T20:25:44.536Z,94932.44
2023-05-15T20:28:30.780Z,94930.38
2023-05-15T20:31:16.649Z,94926.38
2023-05-15T20:34:08.502Z,94928.22
2023-05-15T20:36:54.992Z,94917.97
2023-05-15T20:39:40.907Z,94937.47
2023-05-15T20:42:29.281Z,94928.81
2023-05-15T20:45:15.364Z,94927.94
2023-05-15T20:48:01.633Z,94932.63
2023-05-15T20:50:53.196Z,94930.22
2023-05-15T20:53:39.008Z,94943.91
2023-05-15T20:56:25.824Z,94937.25
2023-05-15T20:59:11.734Z,94928.56
2023-05-15T21:01:57.543Z,94941.94
2023-05-15T21:04:44.142Z,94934.16
2023-05-15T21:07:30.045Z,94934.91
2023-05-15T21:10:15.990Z,94934.09
2023-05-15T21:13:02.199Z,94927.84
2023-05-15T21:15:48.108Z,94932.88
2023-05-15T21:18:34.359Z,94920.31
2023-05-15T21:21:20.739Z,94910.59
2023-05-15T21:24:07.250Z,94918.38
2023-05-15T21:26:53.458Z,94904.25
2023-05-15T21:29:39.615Z,94908.13
2023-05-15T21:32:25.662Z,94908.91
2023-05-15T21:35:11.913Z,94912.78
2023-05-15T21:37:58.023Z,94908.81
2023-05-15T21:40:57.934Z,94897.03
2023-05-15T21:43:43.912Z,94905.66
2023-05-15T21:46:29.639Z,94888.84
2023-05-15T21:49:48.095Z,94895.81
2023-05-15T21:53:45.439Z,94896.53
2023-05-15T21:56:31.960Z,94900.78
2023-05-15T21:59:17.854Z,94907.75
2023-05-15T22:02:03.993Z,94906.09
2023-05-15T22:04:49.800Z,94913.88
2023-05-15T22:07:35.662Z,94911.53
2023-05-15T22:10:22.469Z,94907.94
2023-05-15T22:13:09.197Z,94892.94
2023-05-15T22:15:55.175Z,94905.88
2023-05-15T22:18:45.047Z,94909.75
2023-05-15T22:21:32.109Z,94906.59
2023-05-15T22:24:18.011Z,94908.88
2023-05-15T22:27:04.037Z,94904.16
2023-05-15T22:29:50.014Z,94892.41
2023-05-15T22:32:36.157Z,94896.28
2023-05-15T22:35:22.293Z,94884.50
2023-05-15T22:38:08.321Z,94893.00
2023-05-15T22:40:54.116Z,94892.91
2023-05-15T22:43:40.096Z,94891.69
2023-05-15T22:46:25.785Z,94898.75
2023-05-15T22:49:24.373Z,94895.09
2023-05-15T22:52:12.948Z,94903.66
2023-05-15T22:54:59.965Z,94905.22
2023-05-15T22:57:45.827Z,94910.59
2023-05-15T23:00:32.373Z,94907.53
2023-05-15T23:03:18.578Z,94910.97
2023-05-15T23:06:05.004Z,94910.97
2023-05-15T23:08:51.409Z,94921.47
2023-05-15T23:11:37.957Z,94910.56
2023-05-15T23:14:24.403Z,94918.34
2023-05-15T23:17:10.497Z,94912.53
2023-05-15T23:19:56.548Z,94923.03
2023-05-15T23:22:42.412Z,94912.09
2023-05-15T23:25:28.412Z,94915.28
2023-05-15T23:28:14.312Z,94896.16
2023-05-15T23:31:00.072Z,94883.28
2023-05-15T23:33:45.713Z,94880.16
2023-05-15T23:36:31.454Z,94852.47
2023-05-15T23:39:17.250Z,94873.91
2023-05-15T23:42:03.383Z,94866.16
2023-05-15T23:44:50.066Z,94870.03
2023-05-15T23:47:36.603Z,94875.50
2023-05-15T23:50:23.201Z,94869.19
2023-05-15T23:53:09.304Z,94875.09
2023-05-15T23:55:55.500Z,94865.31
2023-05-15T23:58:41.773Z,94855.97
